Time;durP1;ratioP1;P1;durP2;ratioP2;P2;SDS_P1;SDS_P2;PMS_P1;PMS_P2;Temp;Humidity;BMP_temperature;BMP_pressure;BME280_temperature;BME280_humidity;BME280_pressure;Samples;Min_cycle;Max_cycle;Signal;HPM_P1;HPM_P2
2022/10/01 00:02:08;;;;;;;6.10;3.10;;;;;;;14.38;89.59;101093.56;107373;1249;72210;-74
2022/10/01 00:04:38;;;;;;;8.40;4.70;;;;;;;14.33;89.84;101097.32;107439;1250;70304;-74
2022/10/01 00:07:09;;;;;;;7.10;3.70;;;;;;;14.29;90.15;101101.29;107509;1249;74097;-74
2022/10/01 00:09:38;;;;;;;8.00;3.40;;;;;;;14.27;88.90;101097.27;107455;1250;60505;-76
2022/10/01 00:12:07;;;;;;;5.10;3.00;;;;;;;14.24;90.61;101102.95;107337;1249;60518;-70
2022/10/01 00:14:38;;;;;;;5.00;2.70;;;;;;;14.20;90.35;101100.28;107494;1249;74832;-74
2022/10/01 00:17:07;;;;;;;5.30;2.70;;;;;;;14.19;89.17;101107.07;107505;1249;72559;-73
2022/10/01 00:19:35;;;;;;;10.50;7.70;;;;;;;14.15;88.05;101103.17;107219;1250;70164;-75
2022/10/01 00:22:04;;;;;;;6.20;3.10;;;;;;;14.10;90.19;101104.80;107499;1248;71781;-72
2022/10/01 00:24:33;;;;;;;11.50;3.20;;;;;;;14.08;91.09;101104.94;107369;1250;61264;-75
2022/10/01 00:27:01;;;;;;;9.00;2.90;;;;;;;14.07;90.81;101105.02;107524;1249;59588;-76
2022/10/01 00:29:30;;;;;;;5.80;2.80;;;;;;;14.03;89.28;101103.63;107287;1250;72518;-73
2022/10/01 00:32:00;;;;;;;5.30;2.50;;;;;;;13.95;88.72;101103.70;107355;1250;69599;-75
2022/10/01 00:34:29;;;;;;;3.70;2.50;;;;;;;13.88;87.99;101104.85;107479;1250;69379;-72
2022/10/01 00:36:57;;;;;;;6.30;2.80;;;;;;;13.81;90.30;101105.59;107482;1249;72360;-73
2022/10/01 00:39:26;;;;;;;5.00;2.50;;;;;;;13.79;92.53;101107.98;107232;1250;60519;-75
2022/10/01 00:41:54;;;;;;;4.50;2.50;;;;;;;13.79;92.02;101109.02;107339;1250;61551;-72
2022/10/01 00:44:36;;;;;;;5.40;2.40;;;;;;;13.77;92.15;101104.80;107339;1250;73018;-72
2022/10/01 00:47:39;;;;;;;6.10;2.70;;;;;;;13.82;92.97;101108.42;107331;1250;71461;-70
2022/10/01 00:50:27;;;;;;;5.50;3.20;;;;;;;13.92;92.51;101111.00;107563;1250;69445;-73
2022/10/01 00:53:02;;;;;;;6.20;2.40;;;;;;;13.84;91.90;101113.00;107481;1250;73383;-72
2022/10/01 00:55:54;;;;;;;4.10;2.40;;;;;;;13.82;90.13;101106.20;107504;1250;62168;-74
2022/10/01 00:58:24;;;;;;;4.90;2.60;;;;;;;13.74;91.38;101096.15;107529;1249;61536;-73
2022/10/01 01:00:55;;;;;;;4.80;3.10;;;;;;;13.73;90.10;101091.50;107353;1250;72124;-73
2022/10/01 01:03:25;;;;;;;6.10;3.00;;;;;;;13.73;89.49;101090.80;107550;1247;71438;-75
2022/10/01 01:05:54;;;;;;;5.40;2.50;;;;;;;13.69;89.35;101099.85;107469;1247;70405;-74
2022/10/01 01:08:22;;;;;;;4.90;2.50;;;;;;;13.72;89.48;101107.67;107523;1247;74928;-74
2022/10/01 01:11:16;;;;;;;4.10;2.50;;;;;;;13.75;91.58;101105.88;107508;1247;61520;-75
2022/10/01 01:14:28;;;;;;;4.70;2.50;;;;;;;13.74;91.94;101106.77;107371;1248;59743;-74
2022/10/01 01:17:07;;;;;;;9.50;2.60;;;;;;;13.76;92.37;101098.58;107579;1247;74412;-73
2022/10/01 01:20:36;;;;;;;4.50;2.80;;;;;;;13.81;92.50;101098.71;107618;1247;72703;-73
2022/10/01 01:23:14;;;;;;;4.80;3.00;;;;;;;13.82;91.21;101099.04;107576;1247;69061;-76
2022/10/01 01:26:30;;;;;;;5.00;2.50;;;;;;;13.81;90.55;101098.17;107432;1248;72109;-75
2022/10/01 01:29:38;;;;;;;4.50;2.50;;;;;;;13.80;89.99;101099.17;107626;1247;61301;-72
2022/10/01 01:32:17;;;;;;;4.20;2.20;;;;;;;13.80;89.64;101094.59;107332;1247;58808;-74
2022/10/01 01:34:49;;;;;;;4.50;2.50;;;;;;;13.80;91.39;101103.48;107578;1248;74824;-73
2022/10/01 01:37:25;;;;;;;10.00;2.80;;;;;;;13.81;91.43;101105.20;107585;1247;72739;-71
2022/10/01 01:39:56;;;;;;;8.10;2.80;;;;;;;13.82;92.09;101103.88;107648;1247;69430;-71
2022/10/01 01:42:36;;;;;;;5.00;2.50;;;;;;;13.83;92.32;101105.94;107633;1248;73608;-69
2022/10/01 01:45:11;;;;;;;5.70;3.00;;;;;;;13.85;92.27;101101.77;107560;1247;61305;-73
2022/10/01 01:47:41;;;;;;;6.00;2.80;;;;;;;13.87;92.03;101098.41;107594;1247;60448;-73
2022/10/01 01:50:13;;;;;;;5.60;3.10;;;;;;;13.84;92.00;101101.09;107493;1248;72062;-72
2022/10/01 01:52:42;;;;;;;6.90;2.70;;;;;;;13.79;92.25;101108.36;107206;1248;71445;-73
2022/10/01 01:55:11;;;;;;;3.90;2.70;;;;;;;13.71;92.16;101113.33;107379;1247;70141;-73
2022/10/01 01:57:42;;;;;;;5.40;2.60;;;;;;;13.63;92.57;101118.86;107542;1247;71747;-73
2022/10/01 02:00:13;;;;;;;3.90;2.60;;;;;;;13.58;92.96;101116.97;107351;1248;62493;-73
2022/10/01 02:02:52;;;;;;;5.00;2.40;;;;;;;13.50;93.55;101116.05;107272;1248;61356;-76
2022/10/01 02:05:27;;;;;;;6.00;2.50;;;;;;;13.45;94.02;101116.27;107430;1247;73348;-75
2022/10/01 02:08:30;;;;;;;8.10;3.00;;;;;;;13.40;94.26;101116.48;107441;1247;69514;-75
2022/10/01 02:11:31;;;;;;;6.80;2.60;;;;;;;13.35;93.81;101126.30;107451;1247;69768;-73
2022/10/01 02:14:08;;;;;;;4.60;2.50;;;;;;;13.34;92.10;101130.41;107431;1247;72537;-74
2022/10/01 02:16:56;;;;;;;3.70;2.40;;;;;;;13.34;91.44;101128.00;107412;1247;62961;-75
2022/10/01 02:19:32;;;;;;;6.40;2.50;;;;;;;13.34;92.34;101130.10;107512;1247;60033;-73
2022/10/01 02:22:35;;;;;;;7.00;2.50;;;;;;;13.33;93.07;101126.48;107530;1247;73379;-72
2022/10/01 02:25:06;;;;;;;6.90;2.80;;;;;;;13.30;93.03;101128.83;107356;1250;70964;-73
2022/10/01 02:27:54;;;;;;;9.90;3.20;;;;;;;13.25;91.90;101126.73;107283;1248;68119;-74
2022/10/01 02:30:24;;;;;;;4.70;2.60;;;;;;;13.17;90.53;101129.73;107448;1247;71404;-74
2022/10/01 02:32:58;;;;;;;3.70;2.20;;;;;;;13.12;90.37;101134.19;107241;1251;60581;-74
2022/10/01 02:35:30;;;;;;;4.90;2.60;;;;;;;13.05;90.42;101133.98;107225;1248;60492;-73
2022/10/01 02:38:03;;;;;;;7.60;2.50;;;;;;;12.99;92.00;101135.67;107450;1247;75036;-73
2022/10/01 02:40:36;;;;;;;9.30;2.80;;;;;;;12.93;92.40;101135.23;107253;1247;71753;-75
2022/10/01 02:43:20;;;;;;;4.20;2.10;;;;;;;12.89;92.26;101135.91;107348;1247;69270;-76
2022/10/01 02:45:56;;;;;;;10.20;2.60;;;;;;;12.91;94.54;101142.27;107364;1248;71718;-78
2022/10/01 02:48:26;;;;;;;4.20;2.50;;;;;;;12.96;94.93;101149.87;107523;1247;62773;-75
2022/10/01 02:51:16;;;;;;;6.40;3.30;;;;;;;12.95;94.49;101146.63;107393;1248;59597;-82
2022/10/01 02:53:51;;;;;;;5.80;3.00;;;;;;;12.96;94.91;101149.05;107535;1247;73169;-74
2022/10/01 02:57:21;;;;;;;4.60;2.70;;;;;;;12.93;94.64;101149.41;107600;1248;69517;-74
2022/10/01 02:59:16;;;;;;;6.80;2.50;;;;;;;12.88;94.56;101145.97;107419;1247;68124;-73
2022/10/01 03:01:44;;;;;;;6.30;2.60;;;;;;;12.84;94.76;101138.73;107568;1246;73616;-78
2022/10/01 03:04:13;;;;;;;6.00;3.00;;;;;;;12.82;95.40;101140.82;107298;1248;60934;-75
2022/10/01 03:06:42;;;;;;;4.60;2.50;;;;;;;12.81;95.07;101146.67;107501;1248;60019;-76
2022/10/01 03:09:12;;;;;;;5.70;2.90;;;;;;;12.79;94.80;101146.65;107524;1247;73618;-76
2022/10/01 03:11:41;;;;;;;9.20;3.00;;;;;;;12.77;94.82;101140.31;107490;1247;70164;-77
2022/10/01 03:14:10;;;;;;;5.70;2.50;;;;;;;12.76;95.07;101138.67;107422;1248;70482;-74
2022/10/01 03:16:38;;;;;;;4.20;2.40;;;;;;;12.75;93.83;101136.28;107134;1249;73719;-75
2022/10/01 03:19:07;;;;;;;4.90;2.30;;;;;;;12.74;93.43;101139.48;107325;1250;61874;-77
2022/10/01 03:21:36;;;;;;;4.70;2.30;;;;;;;12.72;93.03;101140.48;107211;1250;59377;-77
2022/10/01 03:24:04;;;;;;;5.70;2.70;;;;;;;12.71;92.92;101138.16;107433;1248;73987;-75
2022/10/01 03:26:33;;;;;;;7.00;2.40;;;;;;;12.66;94.22;101138.89;107351;1250;70950;-75
2022/10/01 03:29:03;;;;;;;6.70;2.30;;;;;;;12.60;93.61;101141.04;107426;1250;69575;-77
2022/10/01 03:31:32;;;;;;;3.70;2.20;;;;;;;12.57;92.70;101140.23;107436;1249;73828;-75
2022/10/01 03:34:01;;;;;;;7.40;2.20;;;;;;;12.53;93.45;101143.69;107330;1248;61464;-73
2022/10/01 03:36:30;;;;;;;5.20;2.30;;;;;;;12.50;92.14;101145.66;107630;1248;61267;-76
2022/10/01 03:38:58;;;;;;;3.50;2.30;;;;;;;12.42;92.85;101138.91;107417;1248;74839;-74
2022/10/01 03:41:27;;;;;;;6.10;2.50;;;;;;;12.36;93.95;101132.54;107583;1247;69899;-76
2022/10/01 03:43:56;;;;;;;4.50;2.30;;;;;;;12.30;94.99;101130.68;107377;1248;69750;-73
2022/10/01 03:46:29;;;;;;;5.20;2.30;;;;;;;12.28;95.14;101124.01;107576;1247;74244;-75
2022/10/01 03:48:59;;;;;;;3.00;2.00;;;;;;;12.25;95.09;101123.89;107612;1248;62849;-81
2022/10/01 03:51:30;;;;;;;5.30;2.30;;;;;;;12.21;95.02;101120.34;107578;1247;60045;-76
2022/10/01 03:53:58;;;;;;;6.40;2.10;;;;;;;12.20;94.11;101124.05;107580;1247;74390;-85
2022/10/01 03:56:27;;;;;;;4.00;2.20;;;;;;;12.19;93.05;101132.84;107576;1247;70751;-74
2022/10/01 03:58:56;;;;;;;5.10;2.30;;;;;;;12.16;92.98;101137.44;107634;1247;67683;-78
2022/10/01 04:01:26;;;;;;;5.80;2.50;;;;;;;12.13;92.31;101142.77;107576;1248;74566;-76
2022/10/01 04:03:55;;;;;;;4.40;2.30;;;;;;;12.07;93.18;101144.55;107571;1247;61806;-75
2022/10/01 04:06:23;;;;;;;5.70;2.60;;;;;;;12.05;93.57;101143.14;107432;1250;61570;-78
2022/10/01 04:08:52;;;;;;;6.30;2.90;;;;;;;12.05;93.40;101147.68;107581;1247;72684;-78
2022/10/01 04:11:21;;;;;;;7.90;2.80;;;;;;;12.04;95.08;101145.69;107631;1247;72235;-75
2022/10/01 04:13:51;;;;;;;6.30;2.60;;;;;;;12.09;95.69;101152.11;107353;1247;70077;-75
2022/10/01 04:16:29;;;;;;;5.60;2.60;;;;;;;12.09;95.48;101154.22;107100;1247;73777;-72
2022/10/01 04:18:57;;;;;;;6.20;2.40;;;;;;;12.08;95.16;101158.98;107547;1247;61776;-72
2022/10/01 04:21:27;;;;;;;8.50;2.50;;;;;;;12.08;95.65;101162.48;107796;1247;61015;-75
2022/10/01 04:23:56;;;;;;;5.50;2.60;;;;;;;12.12;96.10;101163.27;107767;1247;73675;-75
2022/10/01 04:26:24;;;;;;;7.00;3.70;;;;;;;12.15;95.65;101163.23;107434;1248;69437;-77
2022/10/01 04:28:53;;;;;;;5.10;2.90;;;;;;;12.18;95.78;101157.92;107554;1247;68148;-75
2022/10/01 04:31:24;;;;;;;8.80;3.80;;;;;;;12.32;95.80;101159.15;107579;1247;73025;-75
2022/10/01 04:33:56;;;;;;;8.40;3.80;;;;;;;12.38;94.52;101154.20;107329;1247;372523;-76
2022/10/01 04:36:25;;;;;;;5.70;3.10;;;;;;;12.39;94.18;101148.52;107693;1247;61203;-74
2022/10/01 04:38:55;;;;;;;7.20;3.20;;;;;;;12.45;94.60;101149.88;107701;1247;74982;-77
2022/10/01 04:41:31;;;;;;;8.10;3.20;;;;;;;12.55;94.49;101152.99;107653;1247;71116;-75
2022/10/01 04:44:00;;;;;;;4.70;2.90;;;;;;;12.62;94.05;101154.41;107377;1247;70500;-77
2022/10/01 04:46:29;;;;;;;5.00;3.40;;;;;;;12.74;93.54;101155.59;107596;1247;72372;-79
2022/10/01 04:48:58;;;;;;;10.00;3.80;;;;;;;12.84;93.00;101164.23;107499;1248;61920;-78
2022/10/01 04:51:26;;;;;;;10.00;3.30;;;;;;;12.95;92.74;101162.41;107583;1250;60919;-77
2022/10/01 04:53:55;;;;;;;8.70;3.30;;;;;;;13.05;92.25;101160.09;107670;1250;73339;-75
2022/10/01 04:56:24;;;;;;;9.30;3.40;;;;;;;13.16;91.96;101167.99;107755;1247;72359;-83
2022/10/01 04:58:52;;;;;;;9.60;4.10;;;;;;;13.33;91.21;101170.04;107664;1247;70343;-87
2022/10/01 05:01:21;;;;;;;11.20;4.10;;;;;;;13.51;90.47;101167.25;107452;1251;72524;-78
2022/10/01 05:03:50;;;;;;;10.40;3.80;;;;;;;13.70;89.92;101168.06;107775;1248;61853;-78
2022/10/01 05:06:18;;;;;;;16.30;6.40;;;;;;;13.87;89.22;101166.59;107442;1248;61055;-82
2022/10/01 05:08:48;;;;;;;10.70;4.60;;;;;;;14.00;88.65;101161.23;107606;1247;73145;-80
2022/10/01 05:11:19;;;;;;;10.00;4.30;;;;;;;14.16;88.37;101161.64;107445;1250;72215;-78
2022/10/01 05:13:47;;;;;;;6.60;4.00;;;;;;;14.26;88.21;101162.84;107573;1249;70239;-79
2022/10/01 05:16:16;;;;;;;11.70;4.40;;;;;;;14.38;87.89;101162.76;107355;1250;71932;-80
2022/10/01 05:18:45;;;;;;;9.00;5.30;;;;;;;14.53;86.69;101165.96;107141;1250;60735;-77
2022/10/01 05:21:14;;;;;;;25.70;10.90;;;;;;;14.71;86.16;101173.65;107516;1250;61201;-79
2022/10/01 05:23:43;;;;;;;12.90;4.50;;;;;;;14.87;86.32;101183.14;107632;1247;72896;-80
2022/10/01 05:26:12;;;;;;;13.00;5.00;;;;;;;15.02;86.29;101185.42;107619;1248;72158;-78
2022/10/01 05:28:43;;;;;;;10.90;4.60;;;;;;;15.18;84.21;101174.77;107626;1247;70115;-80
2022/10/01 05:31:12;;;;;;;7.50;3.90;;;;;;;15.36;83.62;101174.25;107661;1247;73265;-80
2022/10/01 05:33:41;;;;;;;10.90;5.80;;;;;;;15.56;82.68;101177.79;107391;1250;61699;-79
2022/10/01 05:36:10;;;;;;;8.90;4.40;;;;;;;15.76;82.88;101174.71;107382;1250;59767;-81
2022/10/01 05:38:39;;;;;;;11.50;4.90;;;;;;;15.95;82.96;101178.17;107346;1250;74495;-82
2022/10/01 05:41:07;;;;;;;11.00;4.70;;;;;;;16.13;82.60;101181.86;107574;1250;70566;-81
2022/10/01 05:43:36;;;;;;;14.60;6.50;;;;;;;16.25;78.88;101181.34;107351;1250;60025;-81
2022/10/01 05:46:05;;;;;;;14.50;5.90;;;;;;;16.39;77.70;101181.30;107664;1247;73204;-80
2022/10/01 05:48:35;;;;;;;18.00;7.20;;;;;;;16.53;77.26;101180.23;107608;1248;62072;-79
2022/10/01 05:51:07;;;;;;;11.90;6.70;;;;;;;16.62;76.95;101177.13;107410;1251;57964;-80
2022/10/01 05:53:36;;;;;;;21.30;7.30;;;;;;;16.80;78.12;101172.04;107621;1248;73608;-82
2022/10/01 05:56:07;;;;;;;16.50;6.30;;;;;;;16.94;77.73;101162.95;107444;1248;72201;-81
2022/10/01 05:58:35;;;;;;;15.20;6.70;;;;;;;17.07;76.96;101161.05;107503;1248;60573;-79
2022/10/01 06:01:04;;;;;;;15.10;6.50;;;;;;;17.24;77.71;101159.48;107516;1247;62953;-82
2022/10/01 06:03:33;;;;;;;15.10;6.20;;;;;;;17.36;75.79;101162.95;107546;1247;60531;-81
2022/10/01 06:06:04;;;;;;;11.50;6.10;;;;;;;17.51;74.23;101173.12;107529;1248;59622;-80
2022/10/01 06:08:35;;;;;;;14.80;6.40;;;;;;;17.62;73.79;101174.70;107373;1248;75525;-83
2022/10/01 06:11:04;;;;;;;12.80;6.00;;;;;;;17.69;73.01;101168.98;107442;1248;61470;-81
2022/10/01 06:13:37;;;;;;;12.10;5.90;;;;;;;17.83;72.83;101164.11;107638;1248;59278;-82
2022/10/01 06:16:14;;;;;;;11.20;5.90;;;;;;;18.00;72.24;101163.35;107513;1248;62459;-81
2022/10/01 06:18:43;;;;;;;17.00;6.70;;;;;;;18.15;69.82;101161.42;107359;1248;58338;-81
2022/10/01 06:21:12;;;;;;;16.30;6.70;;;;;;;18.12;68.75;101164.14;107662;1247;59421;-83
2022/10/01 06:23:43;;;;;;;17.40;6.90;;;;;;;18.24;68.83;101165.25;107495;1248;74858;-80
2022/10/01 06:26:12;;;;;;;19.40;8.30;;;;;;;18.22;68.94;101164.21;107446;1248;72748;-78
2022/10/01 06:28:40;;;;;;;17.90;7.90;;;;;;;18.18;69.20;101164.83;107473;1248;69789;-81
2022/10/01 06:31:10;;;;;;;16.00;7.60;;;;;;;18.18;69.23;101172.34;107646;1247;65455;-77
2022/10/01 06:33:39;;;;;;;19.50;7.90;;;;;;;18.16;68.58;101176.61;107255;1250;60163;-80
2022/10/01 06:36:08;;;;;;;14.40;6.10;;;;;;;18.23;68.00;101174.57;107609;1250;59534;-80
2022/10/01 06:38:42;;;;;;;10.80;5.50;;;;;;;18.17;67.19;101177.80;107473;1250;73641;-84
2022/10/01 06:41:12;;;;;;;15.00;5.80;;;;;;;18.17;66.80;101177.35;107277;1248;61823;-86
2022/10/01 06:43:44;;;;;;;20.90;5.90;;;;;;;18.31;66.47;101178.83;107330;1250;60357;-85
2022/10/01 06:46:13;;;;;;;16.20;5.40;;;;;;;18.38;65.52;101175.41;107570;1250;62448;-80
2022/10/01 06:48:42;;;;;;;12.00;5.70;;;;;;;18.53;65.17;101175.80;107311;1250;57858;-79
2022/10/01 06:51:10;;;;;;;11.50;5.00;;;;;;;18.74;64.93;101177.98;107553;1250;60427;-83
2022/10/01 06:53:41;;;;;;;16.40;5.90;;;;;;;18.89;64.36;101181.09;107315;1250;74877;-81
2022/10/01 06:56:12;;;;;;;14.40;5.60;;;;;;;19.09;63.83;101178.56;107560;1250;72717;-84
2022/10/01 06:58:42;;;;;;;17.90;6.30;;;;;;;19.29;63.95;101172.50;107349;1250;60591;-81
2022/10/01 07:01:12;;;;;;;13.10;6.10;;;;;;;19.46;63.40;101178.45;107496;1248;73908;-80
2022/10/01 07:03:41;;;;;;;16.60;5.40;;;;;;;19.51;63.73;101181.70;107383;1250;58299;-85
2022/10/01 07:06:10;;;;;;;13.50;4.80;;;;;;;19.74;64.40;101185.65;107569;1249;60506;-83
2022/10/01 07:08:41;;;;;;;12.10;4.90;;;;;;;19.92;64.16;101189.71;107182;1250;74868;-84
2022/10/01 07:11:10;;;;;;;15.60;5.20;;;;;;;20.01;61.59;101191.86;107391;1249;71252;-80
2022/10/01 07:13:39;;;;;;;17.00;5.10;;;;;;;19.99;61.06;101189.46;107204;1249;71015;-83
2022/10/01 07:16:07;;;;;;;15.10;5.20;;;;;;;20.03;60.98;101186.13;107062;1250;63729;-88
2022/10/01 07:18:45;;;;;;;13.00;4.30;;;;;;;20.16;61.07;101182.81;107294;1250;61359;-85
2022/10/01 07:21:16;;;;;;;16.00;5.00;;;;;;;20.14;60.88;101178.86;107242;1250;61960;-83
2022/10/01 07:23:48;;;;;;;13.90;4.70;;;;;;;20.20;60.81;101176.66;107289;1250;64519;-83
2022/10/01 07:26:17;;;;;;;8.20;4.00;;;;;;;20.30;60.99;101169.89;107097;1249;70928;-86
2022/10/01 07:28:46;;;;;;;12.50;4.30;;;;;;;20.50;61.47;101165.70;107466;1250;60729;-85
2022/10/01 07:31:15;;;;;;;5.70;3.00;;;;;;;20.72;61.61;101159.96;107573;1249;73201;-82
2022/10/01 07:33:43;;;;;;;5.30;2.80;;;;;;;20.91;61.32;101154.63;107313;1249;61694;-82
2022/10/01 07:36:12;;;;;;;7.00;3.10;;;;;;;21.13;61.11;101153.63;107518;1249;59591;-83
2022/10/01 07:38:50;;;;;;;10.00;3.30;;;;;;;21.39;59.08;101155.10;107597;1248;73417;-83
2022/10/01 07:41:18;;;;;;;13.80;3.90;;;;;;;21.63;58.09;101153.61;107630;1247;72123;-83
2022/10/01 07:43:48;;;;;;;11.50;4.00;;;;;;;21.77;56.76;101151.98;107643;1248;59764;-89
2022/10/01 07:46:18;;;;;;;8.50;3.50;;;;;;;21.86;55.91;101147.38;107350;1250;64494;-78
2022/10/01 07:48:48;;;;;;;10.50;3.80;;;;;;;22.03;56.25;101144.25;107509;1247;59551;-79
2022/10/01 07:51:18;;;;;;;9.00;3.20;;;;;;;22.17;54.88;101137.54;107340;1250;59524;-80
2022/10/01 07:53:46;;;;;;;9.60;3.90;;;;;;;22.36;55.70;101128.29;107419;1248;74395;-82
2022/10/01 07:56:15;;;;;;;6.30;2.90;;;;;;;22.49;55.29;101129.47;107419;1248;62516;-81
2022/10/01 07:58:44;;;;;;;9.70;2.90;;;;;;;22.52;54.25;101130.79;107240;1250;59994;-89
2022/10/01 08:01:13;;;;;;;8.10;3.00;;;;;;;22.42;53.54;101128.64;107416;1248;73868;-80
2022/10/01 08:03:42;;;;;;;7.80;2.80;;;;;;;22.78;53.64;101126.02;107313;1248;61393;-80
2022/10/01 08:06:17;;;;;;;7.20;2.60;;;;;;;23.01;53.32;101127.10;107869;1250;61001;-87
2022/10/01 08:08:53;;;;;;;6.20;2.60;;;;;;;23.26;53.93;101124.42;107900;1248;64278;-82
2022/10/01 08:11:23;;;;;;;7.90;2.70;;;;;;;23.31;51.27;101112.23;108072;1250;72426;-79
2022/10/01 08:13:58;;;;;;;11.50;2.90;;;;;;;23.59;50.92;101117.78;108034;1247;59701;-86
2022/10/01 08:16:27;;;;;;;6.10;2.00;;;;;;;23.64;48.68;101114.02;107475;1248;64670;-82
2022/10/01 08:18:59;;;;;;;3.30;1.40;;;;;;;23.66;47.49;101113.32;107598;1248;61827;-82
2022/10/01 08:21:28;;;;;;;4.20;1.60;;;;;;;23.91;46.77;101107.34;107350;1248;59512;-81
2022/10/01 08:24:03;;;;;;;5.70;1.80;;;;;;;23.96;46.62;101105.14;107285;1250;63051;-84
2022/10/01 08:26:32;;;;;;;6.20;2.80;;;;;;;23.92;47.34;101099.55;107450;1248;71309;-83
2022/10/01 08:29:06;;;;;;;7.40;2.10;;;;;;;23.82;46.29;101096.45;107724;1248;70533;-79
2022/10/01 08:31:40;;;;;;;3.80;1.60;;;;;;;23.88;47.41;101100.50;107584;1248;74911;-83
2022/10/01 08:34:19;;;;;;;7.00;2.00;;;;;;;23.82;46.06;101097.84;107474;1249;60350;-82
2022/10/01 08:36:54;;;;;;;6.20;1.80;;;;;;;23.80;46.43;101096.22;107407;1248;59641;-86
2022/10/01 08:39:23;;;;;;;7.20;2.10;;;;;;;23.75;46.81;101088.86;107437;1250;63048;-80
2022/10/01 08:42:18;;;;;;;6.40;1.90;;;;;;;23.68;46.80;101079.79;107144;1251;63275;-81
2022/10/01 08:44:49;;;;;;;4.40;1.80;;;;;;;23.53;46.82;101077.29;107281;1250;71515;-82
2022/10/01 08:47:38;;;;;;;4.10;1.80;;;;;;;23.58;46.94;101070.88;107585;1250;64705;-81
2022/10/01 08:50:32;;;;;;;6.50;2.00;;;;;;;23.69;46.49;101072.45;107588;1248;59538;-79
2022/10/01 08:53:06;;;;;;;6.00;1.70;;;;;;;23.82;46.35;101067.96;107483;1248;59510;-85
2022/10/01 08:55:45;;;;;;;3.10;1.80;;;;;;;23.95;46.29;101057.69;107681;1248;74193;-85
2022/10/01 08:58:25;;;;;;;3.70;2.00;;;;;;;24.10;46.11;101053.88;107370;1250;71542;-82
2022/10/01 09:00:54;;;;;;;4.50;2.00;;;;;;;24.18;45.92;101050.71;107383;1252;59619;-89
2022/10/01 09:03:31;;;;;;;6.10;1.90;;;;;;;24.21;46.14;101048.53;107359;1251;63304;-81
2022/10/01 09:06:37;;;;;;;4.80;1.90;;;;;;;24.41;45.73;101047.69;107262;1250;60446;-84
2022/10/01 09:09:46;;;;;;;6.70;1.90;;;;;;;24.63;45.54;101043.79;107454;1248;61672;-82
2022/10/01 09:12:59;;;;;;;6.30;1.80;;;;;;;24.73;45.34;101038.07;107700;1247;66436;-80
2022/10/01 09:16:23;;;;;;;6.30;1.80;;;;;;;24.72;44.97;101033.91;107508;1250;61410;-84
2022/10/01 09:19:41;;;;;;;4.70;1.90;;;;;;;24.86;44.79;101012.65;107430;1250;69789;-81
2022/10/01 09:22:46;;;;;;;3.70;1.60;;;;;;;24.84;44.16;101023.58;107652;1248;63597;-83
2022/10/01 09:25:26;;;;;;;4.50;1.70;;;;;;;24.85;44.47;101017.50;107379;1250;60549;-86
2022/10/01 09:28:32;;;;;;;4.80;1.80;;;;;;;25.03;44.74;101017.94;107909;1248;61851;-85
2022/10/01 09:31:16;;;;;;;3.50;2.00;;;;;;;25.30;44.24;101011.00;108239;1247;73792;-82
2022/10/01 09:34:13;;;;;;;6.20;2.20;;;;;;;25.52;43.72;101003.17;107703;1250;73164;-84
2022/10/01 09:37:13;;;;;;;5.80;1.80;;;;;;;25.57;43.75;100998.49;107554;1250;60440;-86
2022/10/01 09:40:18;;;;;;;9.40;2.00;;;;;;;25.71;43.38;100997.17;107724;1248;64021;-80
2022/10/01 09:42:46;;;;;;;6.40;1.90;;;;;;;25.60;43.24;100996.20;107311;1250;60514;-82
2022/10/01 09:45:20;;;;;;;3.80;2.00;;;;;;;25.59;42.74;100991.58;107539;1250;61003;-83
2022/10/01 09:47:52;;;;;;;3.10;1.70;;;;;;;25.46;42.95;100989.16;107835;1248;74421;-85
2022/10/01 09:50:34;;;;;;;6.60;2.10;;;;;;;25.70;42.92;100988.02;107503;1248;62379;-79
2022/10/01 09:53:03;;;;;;;5.90;2.40;;;;;;;25.93;43.02;100983.38;107572;1248;60571;-80
2022/10/01 09:55:41;;;;;;;3.10;2.00;;;;;;;26.13;43.09;100977.21;107462;1250;64526;-84
2022/10/01 09:58:16;;;;;;;5.20;1.80;;;;;;;26.22;42.76;100970.98;107570;1249;59577;-82
2022/10/01 10:00:47;;;;;;;4.60;2.40;;;;;;;26.34;42.32;100967.60;107319;1249;59581;-82
2022/10/01 10:03:29;;;;;;;6.70;1.90;;;;;;;26.40;41.89;100962.48;107807;1248;74385;-85
2022/10/01 10:06:00;;;;;;;4.30;1.90;;;;;;;26.31;41.75;100960.27;107531;1250;60868;-78
2022/10/01 10:08:39;;;;;;;4.20;1.80;;;;;;;26.31;41.56;100960.22;107293;1250;60088;-84
2022/10/01 10:11:10;;;;;;;3.50;1.90;;;;;;;26.38;41.44;100957.05;107355;1250;73036;-86
2022/10/01 10:13:48;;;;;;;3.90;1.90;;;;;;;26.37;41.55;100956.35;107573;1249;59523;-82
2022/10/01 10:16:25;;;;;;;2.90;1.40;;;;;;;26.71;41.17;100946.60;107362;1250;59546;-83
2022/10/01 10:19:08;;;;;;;12.40;2.90;;;;;;;26.93;40.96;100942.44;107606;1248;62951;-84
2022/10/01 10:21:37;;;;;;;5.80;2.10;;;;;;;27.11;41.02;100938.25;107308;1250;72266;-84
2022/10/01 10:24:36;;;;;;;5.20;2.00;;;;;;;26.98;40.06;100934.46;107418;1250;70911;-86
2022/10/01 10:27:26;;;;;;;5.10;2.00;;;;;;;27.36;39.96;100928.02;107273;1250;63951;-84
2022/10/01 10:30:16;;;;;;;6.00;1.90;;;;;;;27.60;39.34;100923.46;107297;1247;59499;-84
2022/10/01 10:32:48;;;;;;;6.20;2.20;;;;;;;27.77;38.85;100914.61;107679;1248;58104;-80
2022/10/01 10:35:25;;;;;;;5.60;1.60;;;;;;;28.12;38.54;100917.12;107744;1248;64187;-85
2022/10/01 10:37:56;;;;;;;4.60;1.90;;;;;;;28.31;37.43;100916.89;107641;1248;72764;-84
2022/10/01 10:40:41;;;;;;;3.40;1.50;;;;;;;28.27;37.65;100907.77;107491;1248;71304;-83
2022/10/01 10:43:30;;;;;;;4.00;1.50;;;;;;;28.66;36.46;100907.01;107362;1250;65434;-86
2022/10/01 10:45:59;;;;;;;4.20;1.80;;;;;;;28.45;37.04;100906.04;107352;1250;61211;-82
2022/10/01 10:48:38;;;;;;;4.20;1.90;;;;;;;28.01;37.67;100899.16;107329;1251;59599;-90
2022/10/01 10:51:07;;;;;;;4.30;1.90;;;;;;;28.47;37.87;100894.90;107403;1250;74464;-83
2022/10/01 10:53:44;;;;;;;4.60;1.70;;;;;;;28.31;37.32;100891.98;107429;1250;62303;-82
2022/10/01 10:56:23;;;;;;;5.00;1.90;;;;;;;28.50;37.11;100889.17;107251;1253;60099;-85
2022/10/01 10:58:52;;;;;;;3.00;1.60;;;;;;;28.05;37.14;100888.35;107078;1250;63147;-84
2022/10/01 11:01:40;;;;;;;5.90;2.00;;;;;;;27.67;37.47;100884.88;107050;1251;59689;-85
2022/10/01 11:04:57;;;;;;;4.70;1.90;;;;;;;27.54;37.17;100883.65;107235;1248;59495;-81
2022/10/01 11:07:27;;;;;;;5.90;1.90;;;;;;;27.74;37.59;100879.98;107234;1250;63812;-81
2022/10/01 11:10:22;;;;;;;5.40;1.90;;;;;;;28.14;37.05;100871.77;107277;1250;72049;-81
2022/10/01 11:13:07;;;;;;;3.90;1.80;;;;;;;28.10;36.78;100872.81;107278;1248;70378;-82
2022/10/01 11:16:14;;;;;;;5.00;1.60;;;;;;;27.92;37.29;100864.59;107209;1247;62425;-79
2022/10/01 11:19:02;;;;;;;7.40;2.30;;;;;;;28.55;36.40;100864.64;107390;1248;61357;-81
2022/10/01 11:22:04;;;;;;;4.90;2.10;;;;;;;28.83;36.34;100862.63;107469;1248;61785;-82
2022/10/01 11:25:42;;;;;;;3.40;1.40;;;;;;;29.38;34.39;100857.84;107482;1251;64214;-83
2022/10/01 11:29:10;;;;;;;5.00;1.80;;;;;;;29.27;34.59;100852.87;107509;1251;62118;-81
2022/10/01 11:32:04;;;;;;;3.30;1.20;;;;;;;28.97;34.28;100846.36;107724;1248;60245;-79
2022/10/01 11:35:03;;;;;;;4.30;1.80;;;;;;;28.76;34.81;100830.18;107717;1248;73855;-82
2022/10/01 11:37:41;;;;;;;6.20;2.50;;;;;;;29.17;34.68;100825.23;107455;1248;59074;-81
2022/10/01 11:40:29;;;;;;;3.90;1.90;;;;;;;29.62;34.36;100815.81;107606;1248;57896;-81
2022/10/01 11:43:26;;;;;;;4.90;1.70;;;;;;;29.84;33.80;100813.84;107291;1248;73602;-81
2022/10/01 11:46:02;;;;;;;4.20;1.60;;;;;;;29.44;33.79;100818.98;107331;1248;71526;-84
2022/10/01 11:48:45;;;;;;;4.30;1.60;;;;;;;30.07;33.23;100810.97;107396;1247;70799;-83
2022/10/01 11:51:26;;;;;;;2.80;1.60;;;;;;;29.67;33.32;100808.10;107392;1251;73786;-80
2022/10/01 11:54:09;;;;;;;6.10;1.90;;;;;;;29.53;33.71;100810.06;107457;1247;60969;-84
2022/10/01 11:59:50;;;;;;;5.50;2.10;;;;;;;30.20;33.35;100809.20;107493;1248;73675;-81